Time;durP1;ratioP1;P1;durP2;ratioP2;P2;SDS_P1;SDS_P2;PMS_P1;PMS_P2;Temp;Humidity;BMP_temperature;BMP_pressure;BME280_temperature;BME280_humidity;BME280_pressure;Samples;Min_cycle;Max_cycle;Signal;HPM_P1;HPM_P2
2023/01/20 00:01:11;;;;;;;11.50;8.80;;;;;;;;;;5041057;28;20200;-77
2023/01/20 00:03:38;;;;;;;11.97;9.30;;;;;;;;;;5037026;28;20298;-77
2023/01/20 00:06:04;;;;;;;12.60;9.33;;;;;;;;;;5035483;28;20255;-77
2023/01/20 00:08:30;;;;;;;14.13;10.00;;;;;;;;;;5035565;28;20201;-77
2023/01/20 00:10:57;;;;;;;14.50;10.10;;;;;;;;;;5038974;28;20266;-77
2023/01/20 00:13:23;;;;;;;11.53;8.73;;;;;;;;;;5035365;28;20308;-77
2023/01/20 00:15:49;;;;;;;13.57;10.07;;;;;;;;;;5042183;28;20186;-77
2023/01/20 00:18:15;;;;;;;13.53;9.10;;;;;;;;;;5032003;28;20193;-77
2023/01/20 00:20:42;;;;;;;14.80;9.70;;;;;;;;;;5035167;28;20189;-76
2023/01/20 00:23:08;;;;;;;14.40;10.00;;;;;;;;;;5033683;28;20219;-77
2023/01/20 00:25:35;;;;;;;13.17;9.67;;;;;;;;;;5036605;28;20209;-76
2023/01/20 00:28:02;;;;;;;13.17;9.77;;;;;;;;;;5041371;28;20182;-77
2023/01/20 00:30:28;;;;;;;14.27;10.43;;;;;;;;;;5021226;28;20211;-77
2023/01/20 00:32:54;;;;;;;13.40;10.27;;;;;;;;;;5036740;28;20255;-77
2023/01/20 00:35:20;;;;;;;14.30;10.87;;;;;;;;;;5024604;28;20194;-77
2023/01/20 00:37:47;;;;;;;13.07;9.73;;;;;;;;;;5044461;28;20177;-77
2023/01/20 00:40:13;;;;;;;14.27;10.27;;;;;;;;;;5046074;28;20269;-77
2023/01/20 00:42:39;;;;;;;15.30;10.07;;;;;;;;;;5041445;28;20291;-77
2023/01/20 00:45:05;;;;;;;13.00;10.03;;;;;;;;;;5041269;28;20233;-76
2023/01/20 00:47:32;;;;;;;13.13;9.23;;;;;;;;;;5039146;28;20179;-77
2023/01/20 00:49:58;;;;;;;11.83;8.83;;;;;;;;;;5041696;28;20742;-77
2023/01/20 00:52:24;;;;;;;12.30;9.40;;;;;;;;;;5045914;28;20263;-77
2023/01/20 00:54:50;;;;;;;12.53;9.53;;;;;;;;;;5039727;28;20183;-77
2023/01/20 00:57:16;;;;;;;16.00;10.63;;;;;;;;;;5047362;28;20190;-77
2023/01/20 00:59:42;;;;;;;13.57;9.40;;;;;;;;;;5044256;28;20248;-77
2023/01/20 01:02:08;;;;;;;14.27;9.40;;;;;;;;;;5038679;28;20186;-77
2023/01/20 01:04:35;;;;;;;13.23;10.00;;;;;;;;;;5043370;28;20173;-78
2023/01/20 01:07:01;;;;;;;13.30;9.87;;;;;;;;;;5036364;28;20195;-77
2023/01/20 01:09:27;;;;;;;12.50;9.30;;;;;;;;;;5034180;28;20178;-78
2023/01/20 01:11:53;;;;;;;13.50;10.00;;;;;;;;;;5039776;28;20219;-78
2023/01/20 01:14:19;;;;;;;14.00;10.17;;;;;;;;;;5033084;28;20355;-78
2023/01/20 01:16:45;;;;;;;16.63;10.80;;;;;;;;;;5039611;28;20269;-77
2023/01/20 01:19:11;;;;;;;16.37;11.40;;;;;;;;;;5019272;28;20861;-77
2023/01/20 01:21:37;;;;;;;14.77;11.55;;;;;;;;;;5056285;28;20428;-78
2023/01/20 01:24:04;;;;;;;14.63;10.03;;;;;;;;;;5041183;28;20213;-78
2023/01/20 01:26:30;;;;;;;12.33;9.90;;;;;;;;;;5040511;28;20166;-78
2023/01/20 01:28:56;;;;;;;13.47;9.90;;;;;;;;;;5047612;28;20181;-77
2023/01/20 01:31:22;;;;;;;12.57;9.87;;;;;;;;;;5043153;28;20236;-77
2023/01/20 01:33:48;;;;;;;14.50;10.43;;;;;;;;;;5039841;28;20812;-77
2023/01/20 01:36:16;;;;;;;15.37;10.50;;;;;;;;;;5039185;28;20281;-77
2023/01/20 01:38:42;;;;;;;14.73;10.67;;;;;;;;;;5041716;28;20193;-78
2023/01/20 01:41:10;;;;;;;14.20;10.73;;;;;;;;;;5026913;28;20197;-77
2023/01/20 01:43:36;;;;;;;14.63;10.70;;;;;;;;;;5043017;28;20231;-78
2023/01/20 01:46:03;;;;;;;13.77;10.13;;;;;;;;;;5039124;28;20255;-77
2023/01/20 01:48:32;;;;;;;13.17;9.77;;;;;;;;;;5025455;28;20304;-78
2023/01/20 01:51:05;;;;;;;13.80;9.83;;;;;;;;;;5031676;28;20188;-76
2023/01/20 01:53:32;;;;;;;13.50;9.77;;;;;;;;;;5041475;28;20198;-76
2023/01/20 01:56:01;;;;;;;13.83;9.93;;;;;;;;;;5043194;28;20626;-78
2023/01/20 01:58:29;;;;;;;15.77;11.17;;;;;;;;;;5041117;28;20546;-76
2023/01/20 02:00:55;;;;;;;13.03;10.60;;;;;;;;;;5052714;28;20807;-77
2023/01/20 02:03:22;;;;;;;15.37;10.27;;;;;;;;;;5040839;28;20308;-77
2023/01/20 02:05:49;;;;;;;13.63;9.93;;;;;;;;;;5036628;28;20481;-78
2023/01/20 02:08:15;;;;;;;15.20;10.63;;;;;;;;;;5009079;28;20178;-77
2023/01/20 02:10:41;;;;;;;14.27;10.47;;;;;;;;;;5029308;28;20280;-78
2023/01/20 02:13:07;;;;;;;15.07;10.30;;;;;;;;;;5044641;28;20229;-76
2023/01/20 02:15:38;;;;;;;15.77;11.83;;;;;;;;;;5036408;28;20273;-77
2023/01/20 02:18:21;;;;;;;16.60;10.70;;;;;;;;;;5042018;28;20745;-77
2023/01/20 02:21:01;;;;;;;17.13;11.43;;;;;;;;;;5039030;28;20231;-77
2023/01/20 02:23:46;;;;;;;15.03;10.90;;;;;;;;;;5041090;28;20228;-77
2023/01/20 02:26:19;;;;;;;16.37;10.97;;;;;;;;;;5037585;28;20190;-76
2023/01/20 02:28:57;;;;;;;15.27;11.03;;;;;;;;;;5052335;28;20192;-77
2023/01/20 02:31:32;;;;;;;13.23;9.70;;;;;;;;;;5035264;28;20193;-77
2023/01/20 02:34:01;;;;;;;14.60;11.03;;;;;;;;;;5005187;28;20236;-77
2023/01/20 02:36:27;;;;;;;16.23;10.87;;;;;;;;;;5040119;28;20894;-77
2023/01/20 02:39:09;;;;;;;14.87;10.53;;;;;;;;;;5038023;28;20273;-77
2023/01/20 02:41:38;;;;;;;14.27;10.37;;;;;;;;;;5039682;28;20183;-76
2023/01/20 02:44:31;;;;;;;13.43;10.10;;;;;;;;;;5037483;28;20703;-77
2023/01/20 02:47:03;;;;;;;14.30;10.20;;;;;;;;;;5050873;28;20638;-76
2023/01/20 02:49:33;;;;;;;13.37;10.17;;;;;;;;;;5038410;28;20870;-77
2023/01/20 02:52:01;;;;;;;14.20;9.60;;;;;;;;;;5013403;28;20273;-77
2023/01/20 02:54:30;;;;;;;12.43;8.70;;;;;;;;;;5038976;28;20229;-76
2023/01/20 02:56:57;;;;;;;12.63;9.87;;;;;;;;;;5035268;28;20186;-77
2023/01/20 02:59:26;;;;;;;15.20;11.23;;;;;;;;;;5032799;28;20645;-76
2023/01/20 03:01:55;;;;;;;17.27;12.13;;;;;;;;;;5038513;28;20186;-77
2023/01/20 03:04:24;;;;;;;14.30;11.10;;;;;;;;;;5031277;28;20300;-76
2023/01/20 03:06:52;;;;;;;18.60;12.00;;;;;;;;;;5037551;28;20182;-76
2023/01/20 03:09:20;;;;;;;16.40;11.80;;;;;;;;;;5032726;28;20231;-76
2023/01/20 03:11:55;;;;;;;15.43;10.97;;;;;;;;;;5033497;28;20240;-77
2023/01/20 03:14:21;;;;;;;15.33;11.17;;;;;;;;;;5039984;28;20946;-77
2023/01/20 03:16:49;;;;;;;14.40;10.77;;;;;;;;;;5041708;28;20736;-76
2023/01/20 03:19:16;;;;;;;16.87;12.33;;;;;;;;;;5039994;28;20174;-77
2023/01/20 03:21:43;;;;;;;16.67;11.73;;;;;;;;;;5035351;28;20194;-76
2023/01/20 03:24:09;;;;;;;16.23;11.67;;;;;;;;;;5035525;28;20291;-77
2023/01/20 03:26:35;;;;;;;16.07;11.73;;;;;;;;;;5039084;28;20184;-77
2023/01/20 03:29:10;;;;;;;17.43;11.53;;;;;;;;;;5041516;28;20193;-77
2023/01/20 03:31:36;;;;;;;15.50;11.33;;;;;;;;;;5039675;28;20182;-77
2023/01/20 03:34:03;;;;;;;16.80;12.20;;;;;;;;;;5038893;28;20244;-76
2023/01/20 03:36:30;;;;;;;16.73;12.03;;;;;;;;;;5034559;28;20281;-77
2023/01/20 03:38:57;;;;;;;16.97;11.87;;;;;;;;;;5036364;28;20751;-77
2023/01/20 03:41:27;;;;;;;16.93;12.63;;;;;;;;;;5032783;28;20260;-77
2023/01/20 03:44:02;;;;;;;17.07;12.30;;;;;;;;;;5036155;28;20270;-77
2023/01/20 03:46:46;;;;;;;18.17;12.63;;;;;;;;;;5039136;28;20186;-77
2023/01/20 03:49:19;;;;;;;19.30;13.43;;;;;;;;;;5039378;28;20204;-76
2023/01/20 03:51:56;;;;;;;18.10;12.50;;;;;;;;;;5038903;28;20178;-76
2023/01/20 03:54:25;;;;;;;16.23;12.33;;;;;;;;;;5034210;28;20214;-77
2023/01/20 03:57:02;;;;;;;21.67;13.10;;;;;;;;;;5032509;28;20269;-76
2023/01/20 03:59:30;;;;;;;19.00;13.67;;;;;;;;;;5042030;28;20276;-77
2023/01/20 04:01:57;;;;;;;19.17;13.83;;;;;;;;;;5042725;28;20219;-77
2023/01/20 04:04:23;;;;;;;16.23;12.03;;;;;;;;;;5043198;28;20213;-77
2023/01/20 04:06:50;;;;;;;16.53;12.13;;;;;;;;;;5043802;28;20180;-76
2023/01/20 04:09:28;;;;;;;18.60;11.93;;;;;;;;;;5044618;28;20182;-76
2023/01/20 04:11:54;;;;;;;17.33;11.40;;;;;;;;;;5038875;28;20174;-77
2023/01/20 04:14:20;;;;;;;15.70;11.70;;;;;;;;;;5039925;28;20202;-77
2023/01/20 04:16:54;;;;;;;15.23;12.00;;;;;;;;;;5047848;28;20178;-77
2023/01/20 04:19:20;;;;;;;16.43;12.00;;;;;;;;;;5042461;28;20193;-77
2023/01/20 04:21:58;;;;;;;15.83;11.50;;;;;;;;;;5038767;28;20190;-77
2023/01/20 04:24:36;;;;;;;15.30;11.00;;;;;;;;;;5046733;28;20259;-77
2023/01/20 04:27:02;;;;;;;16.10;11.33;;;;;;;;;;5043791;28;20178;-76
2023/01/20 04:29:28;;;;;;;17.87;12.47;;;;;;;;;;5035551;28;20175;-77
2023/01/20 04:31:59;;;;;;;16.80;12.13;;;;;;;;;;5039724;28;20170;-77
2023/01/20 04:34:25;;;;;;;21.43;14.93;;;;;;;;;;5032545;28;20264;-77
2023/01/20 04:36:51;;;;;;;19.70;14.10;;;;;;;;;;5039702;28;20186;-77
2023/01/20 04:39:17;;;;;;;20.33;13.43;;;;;;;;;;5042576;28;20206;-77
2023/01/20 04:41:43;;;;;;;18.87;14.07;;;;;;;;;;5040673;28;20186;-77
2023/01/20 04:44:09;;;;;;;19.93;14.60;;;;;;;;;;5039698;28;20218;-77
2023/01/20 04:46:35;;;;;;;20.17;14.93;;;;;;;;;;5019969;28;20504;-77
2023/01/20 04:49:01;;;;;;;24.47;15.50;;;;;;;;;;5044646;28;20269;-77
2023/01/20 04:51:28;;;;;;;19.30;13.20;;;;;;;;;;5051946;28;20652;-76
2023/01/20 04:53:57;;;;;;;21.57;15.57;;;;;;;;;;5041601;28;20207;-77
2023/01/20 04:56:24;;;;;;;20.70;14.73;;;;;;;;;;5051761;28;20269;-76
2023/01/20 04:58:51;;;;;;;18.53;13.80;;;;;;;;;;5040200;28;20185;-77
2023/01/20 05:01:17;;;;;;;21.60;15.90;;;;;;;;;;5043062;28;20186;-76
2023/01/20 05:03:43;;;;;;;22.13;14.63;;;;;;;;;;5043101;28;20305;-76
2023/01/20 05:06:12;;;;;;;24.47;16.43;;;;;;;;;;5042240;28;20178;-77
2023/01/20 05:08:38;;;;;;;20.75;15.63;;;;;;;;;;5037826;28;20435;-77
2023/01/20 05:11:05;;;;;;;20.60;15.73;;;;;;;;;;5044927;28;20178;-77
2023/01/20 05:13:32;;;;;;;23.58;15.98;;;;;;;;;;5042181;28;20072;-76
2023/01/20 05:15:58;;;;;;;23.53;16.13;;;;;;;;;;5040503;28;20201;-77
2023/01/20 05:18:24;;;;;;;21.80;14.80;;;;;;;;;;5041091;28;20194;-77
2023/01/20 05:20:50;;;;;;;25.87;16.47;;;;;;;;;;5044719;28;20240;-77
2023/01/20 05:23:17;;;;;;;20.57;15.07;;;;;;;;;;5040221;28;20241;-78
2023/01/20 05:25:49;;;;;;;22.97;16.47;;;;;;;;;;5042838;28;20213;-77
2023/01/20 05:28:15;;;;;;;22.30;15.77;;;;;;;;;;5008503;28;20280;-76
2023/01/20 05:30:41;;;;;;;21.43;14.97;;;;;;;;;;5042081;28;20612;-76
2023/01/20 05:33:07;;;;;;;22.23;16.67;;;;;;;;;;5024868;28;20910;-76
2023/01/20 05:35:34;;;;;;;21.87;15.77;;;;;;;;;;5043943;28;20178;-76
2023/01/20 05:38:00;;;;;;;24.50;16.57;;;;;;;;;;5041442;28;20248;-76
2023/01/20 05:40:26;;;;;;;21.93;15.70;;;;;;;;;;5043089;28;20182;-76
2023/01/20 05:42:52;;;;;;;26.77;17.43;;;;;;;;;;5035601;28;20253;-76
2023/01/20 05:45:19;;;;;;;21.00;14.50;;;;;;;;;;5045170;28;20191;-77
2023/01/20 05:47:45;;;;;;;18.40;13.37;;;;;;;;;;5036147;28;20199;-77
2023/01/20 05:50:11;;;;;;;21.07;14.10;;;;;;;;;;5035264;28;20186;-76
2023/01/20 05:52:37;;;;;;;19.20;13.37;;;;;;;;;;5036154;28;20218;-76
2023/01/20 05:55:04;;;;;;;19.30;13.60;;;;;;;;;;5043525;28;20182;-76
2023/01/20 05:57:30;;;;;;;17.80;13.20;;;;;;;;;;5042003;28;20197;-76
2023/01/20 05:59:56;;;;;;;22.20;15.20;;;;;;;;;;5042402;28;20775;-76
2023/01/20 06:02:22;;;;;;;23.37;15.00;;;;;;;;;;5039656;28;20251;-76
2023/01/20 06:04:48;;;;;;;23.53;15.43;;;;;;;;;;5038245;28;20270;-76
2023/01/20 06:07:14;;;;;;;25.20;16.43;;;;;;;;;;5041223;28;20172;-76
2023/01/20 06:09:41;;;;;;;24.80;19.52;;;;;;;;;;5041439;28;20796;-76
2023/01/20 06:12:07;;;;;;;23.90;17.27;;;;;;;;;;5038321;28;20182;-76
2023/01/20 06:14:33;;;;;;;25.20;17.17;;;;;;;;;;5039412;28;20174;-76
2023/01/20 06:16:59;;;;;;;25.03;17.90;;;;;;;;;;5022706;28;20263;-76
2023/01/20 06:19:25;;;;;;;25.65;19.52;;;;;;;;;;5040302;28;20469;-76
2023/01/20 06:21:52;;;;;;;24.63;18.23;;;;;;;;;;5042826;28;20324;-76
2023/01/20 06:24:18;;;;;;;22.77;16.77;;;;;;;;;;5040147;28;20251;-78
2023/01/20 06:26:44;;;;;;;25.55;19.27;;;;;;;;;;5041093;28;21371;-80
2023/01/20 06:29:10;;;;;;;22.63;16.80;;;;;;;;;;5041441;28;20185;-78
2023/01/20 06:31:37;;;;;;;26.10;17.60;;;;;;;;;;5034527;28;20588;-77
2023/01/20 06:34:03;;;;;;;22.13;15.07;;;;;;;;;;5025704;28;20401;-75
2023/01/20 06:36:29;;;;;;;25.80;17.90;;;;;;;;;;5043694;28;20185;-78
2023/01/20 06:38:55;;;;;;;25.60;16.57;;;;;;;;;;5042315;28;20641;-76
2023/01/20 06:41:21;;;;;;;22.93;15.50;;;;;;;;;;5039140;28;20193;-76
2023/01/20 06:43:49;;;;;;;24.90;17.17;;;;;;;;;;5040634;28;20233;-76
2023/01/20 06:46:15;;;;;;;25.50;18.58;;;;;;;;;;5029046;28;20436;-75
2023/01/20 06:48:42;;;;;;;23.33;18.37;;;;;;;;;;5034371;28;20190;-75
2023/01/20 06:51:34;;;;;;;22.60;15.87;;;;;;;;;;5041048;28;20181;-77
2023/01/20 06:54:00;;;;;;;23.93;17.10;;;;;;;;;;5037560;28;20245;-76
2023/01/20 06:56:27;;;;;;;26.83;20.77;;;;;;;;;;5039198;28;21019;-76
2023/01/20 06:58:54;;;;;;;25.30;19.92;;;;;;;;;;5045771;28;20435;-80
2023/01/20 07:01:22;;;;;;;27.23;20.85;;;;;;;;;;5012771;28;20445;-76
2023/01/20 07:03:48;;;;;;;30.87;20.80;;;;;;;;;;5025423;28;20498;-81
2023/01/20 07:06:24;;;;;;;27.30;18.87;;;;;;;;;;5030198;28;20178;-82
2023/01/20 07:08:51;;;;;;;25.60;18.53;;;;;;;;;;5040936;28;20182;-85
2023/01/20 07:11:17;;;;;;;26.27;19.27;;;;;;;;;;5029972;28;20258;-84
2023/01/20 07:13:43;;;;;;;22.80;16.73;;;;;;;;;;5014185;28;20205;-85
2023/01/20 07:16:10;;;;;;;26.27;17.60;;;;;;;;;;5041659;28;20197;-83
2023/01/20 07:18:36;;;;;;;23.37;16.77;;;;;;;;;;5033617;28;20189;-84
2023/01/20 07:21:02;;;;;;;25.30;17.67;;;;;;;;;;5038157;28;20192;-84
2023/01/20 07:23:30;;;;;;;24.67;17.60;;;;;;;;;;5025331;28;20461;-79
2023/01/20 07:26:01;;;;;;;24.93;17.73;;;;;;;;;;5027066;28;20185;-78
2023/01/20 07:28:27;;;;;;;27.13;19.33;;;;;;;;;;5036820;28;20758;-84
2023/01/20 07:30:54;;;;;;;28.20;18.10;;;;;;;;;;5024832;28;20258;-76
2023/01/20 07:33:20;;;;;;;28.27;18.77;;;;;;;;;;5022749;28;20757;-77
2023/01/20 07:35:50;;;;;;;26.57;18.50;;;;;;;;;;5034606;28;20784;-77
2023/01/20 07:38:17;;;;;;;25.57;17.90;;;;;;;;;;5036565;28;20181;-75
2023/01/20 07:40:43;;;;;;;26.13;17.90;;;;;;;;;;5037799;28;20203;-76
2023/01/20 07:43:09;;;;;;;24.93;18.63;;;;;;;;;;5042805;28;20209;-77
2023/01/20 07:45:35;;;;;;;24.60;17.63;;;;;;;;;;5039515;28;20182;-79
2023/01/20 07:48:02;;;;;;;29.83;19.97;;;;;;;;;;5029971;28;20199;-77
2023/01/20 07:50:29;;;;;;;27.97;19.67;;;;;;;;;;5037867;28;20341;-77
2023/01/20 07:52:55;;;;;;;26.97;19.20;;;;;;;;;;5039889;28;20220;-77
2023/01/20 07:55:21;;;;;;;27.67;18.10;;;;;;;;;;5038920;28;20185;-75
2023/01/20 07:57:47;;;;;;;28.57;19.80;;;;;;;;;;5042639;28;20193;-76
2023/01/20 08:00:13;;;;;;;29.57;19.67;;;;;;;;;;5008791;28;20285;-74
2023/01/20 08:02:40;;;;;;;29.33;18.10;;;;;;;;;;5033711;28;20214;-75
2023/01/20 08:05:06;;;;;;;24.53;17.20;;;;;;;;;;5039288;28;20193;-77
2023/01/20 08:07:33;;;;;;;27.43;18.47;;;;;;;;;;5019139;28;20175;-77
2023/01/20 08:09:59;;;;;;;25.47;18.33;;;;;;;;;;5037869;28;20311;-77
2023/01/20 08:12:25;;;;;;;29.23;20.07;;;;;;;;;;5032435;28;20208;-77
2023/01/20 08:14:52;;;;;;;28.77;19.13;;;;;;;;;;5043857;28;20178;-77
2023/01/20 08:17:18;;;;;;;27.07;18.07;;;;;;;;;;5042821;28;20285;-76
2023/01/20 08:19:44;;;;;;;31.33;20.70;;;;;;;;;;5029181;28;20270;-75
2023/01/20 08:22:10;;;;;;;29.63;20.30;;;;;;;;;;5024997;28;20186;-76
2023/01/20 08:24:36;;;;;;;29.17;19.67;;;;;;;;;;5036455;28;20210;-76
2023/01/20 08:27:02;;;;;;;30.93;20.33;;;;;;;;;;5033136;28;20179;-75
2023/01/20 08:29:30;;;;;;;30.93;21.53;;;;;;;;;;5036947;28;20183;-76
2023/01/20 08:32:00;;;;;;;35.33;22.13;;;;;;;;;;5025340;28;20171;-77
2023/01/20 08:34:26;;;;;;;28.17;19.53;;;;;;;;;;5026488;28;20207;-77
2023/01/20 08:36:53;;;;;;;33.17;22.17;;;;;;;;;;5051927;28;20187;-77
2023/01/20 08:39:19;;;;;;;27.80;20.23;;;;;;;;;;5019288;28;20228;-76
2023/01/20 08:41:46;;;;;;;28.47;19.73;;;;;;;;;;5043068;28;20258;-76
2023/01/20 08:44:13;;;;;;;35.93;24.07;;;;;;;;;;5043967;28;20727;-78
2023/01/20 08:46:39;;;;;;;29.40;21.37;;;;;;;;;;5032011;28;20269;-78
2023/01/20 08:49:06;;;;;;;33.53;22.53;;;;;;;;;;5045011;28;20210;-78
2023/01/20 08:51:33;;;;;;;29.53;21.33;;;;;;;;;;5039007;28;20264;-76
2023/01/20 08:53:59;;;;;;;32.43;21.43;;;;;;;;;;5042927;28;20304;-75
2023/01/20 08:56:26;;;;;;;27.93;21.50;;;;;;;;;;5044669;28;20182;-76
2023/01/20 08:58:52;;;;;;;33.10;23.17;;;;;;;;;;5046522;28;20234;-79
2023/01/20 09:01:29;;;;;;;35.23;23.80;;;;;;;;;;5044963;28;20296;-77
2023/01/20 09:03:56;;;;;;;30.10;21.37;;;;;;;;;;5039315;28;20213;-77
2023/01/20 09:06:22;;;;;;;30.73;21.80;;;;;;;;;;5047919;28;20679;-77
2023/01/20 09:08:49;;;;;;;29.07;21.10;;;;;;;;;;5042646;28;20183;-77
2023/01/20 09:11:20;;;;;;;27.60;20.33;;;;;;;;;;5040240;28;20190;-77
2023/01/20 09:13:46;;;;;;;29.40;21.27;;;;;;;;;;5042968;28;20212;-77
2023/01/20 09:16:17;;;;;;;28.90;21.17;;;;;;;;;;5042766;28;20577;-76
2023/01/20 09:18:43;;;;;;;30.43;21.37;;;;;;;;;;5044983;28;20183;-79
2023/01/20 09:21:10;;;;;;;35.80;23.73;;;;;;;;;;5049022;28;20182;-78
2023/01/20 09:23:37;;;;;;;31.77;21.70;;;;;;;;;;5044791;28;20213;-78
2023/01/20 09:26:04;;;;;;;32.77;23.00;;;;;;;;;;5045825;28;20182;-77
2023/01/20 09:28:30;;;;;;;30.23;20.60;;;;;;;;;;5043832;28;20232;-77
2023/01/20 09:31:07;;;;;;;30.83;21.73;;;;;;;;;;5044233;28;20177;-77
2023/01/20 09:33:35;;;;;;;28.87;20.60;;;;;;;;;;5046435;28;20221;-79
2023/01/20 09:36:01;;;;;;;26.07;18.40;;;;;;;;;;5042640;28;20182;-78
2023/01/20 09:44:14;;;;;;;28.03;19.93;;;;;;;;;;5058318;28;20217;-77
2023/01/20 09:47:18;;;;;;;29.77;20.20;;;;;;;;;;5041718;28;20175;-76
2023/01/20 09:53:04;;;;;;;35.00;20.97;;;;;;;;;;5035265;28;20303;-78
2023/01/20 09:55:33;;;;;;;29.00;19.57;;;;;;;;;;5042799;28;20220;-79
2023/01/20 09:58:19;;;;;;;27.47;19.37;;;;;;;;;;5046449;28;20197;-79
2023/01/20 10:00:54;;;;;;;27.83;19.73;;;;;;;;;;5036963;28;20212;-78
2023/01/20 10:03:24;;;;;;;29.50;19.70;;;;;;;;;;5039268;28;20216;-78
2023/01/20 10:05:52;;;;;;;26.73;19.37;;;;;;;;;;5020728;28;20205;-78
2023/01/20 10:08:26;;;;;;;27.47;19.80;;;;;;;;;;5039919;28;20251;-78
2023/01/20 10:10:56;;;;;;;27.93;20.90;;;;;;;;;;5040271;28;20178;-76
2023/01/20 10:13:28;;;;;;;30.00;20.07;;;;;;;;;;5039996;28;20218;-78
2023/01/20 10:15:55;;;;;;;29.13;21.63;;;;;;;;;;5037299;28;20218;-78
2023/01/20 10:18:30;;;;;;;27.97;21.00;;;;;;;;;;5052121;28;20174;-77
2023/01/20 10:21:26;;;;;;;25.90;18.83;;;;;;;;;;5045023;28;20193;-78
2023/01/20 10:23:57;;;;;;;27.03;19.53;;;;;;;;;;5015706;28;20280;-77
2023/01/20 10:26:26;;;;;;;27.10;18.50;;;;;;;;;;5036405;28;20181;-78
2023/01/20 10:29:01;;;;;;;25.53;19.27;;;;;;;;;;5046367;28;20173;-78
2023/01/20 10:31:30;;;;;;;24.13;18.63;;;;;;;;;;5042638;28;20186;-78
2023/01/20 10:33:58;;;;;;;25.70;18.40;;;;;;;;;;5047628;28;20233;-78
2023/01/20 10:36:28;;;;;;;26.47;19.00;;;;;;;;;;5036065;28;20181;-77
2023/01/20 10:38:57;;;;;;;25.70;19.00;;;;;;;;;;5031640;28;20196;-78
2023/01/20 10:41:27;;;;;;;24.00;18.63;;;;;;;;;;5034726;28;20244;-76
2023/01/20 10:43:55;;;;;;;24.87;18.60;;;;;;;;;;5042873;28;20624;-79
2023/01/20 10:46:40;;;;;;;25.97;18.73;;;;;;;;;;5036032;28;20716;-78
2023/01/20 10:49:13;;;;;;;22.90;17.10;;;;;;;;;;5040141;28;20232;-79
2023/01/20 10:51:47;;;;;;;23.90;17.40;;;;;;;;;;5041126;28;20193;-77
2023/01/20 10:54:13;;;;;;;24.10;17.40;;;;;;;;;;5041074;28;20200;-76
2023/01/20 10:56:42;;;;;;;25.07;18.33;;;;;;;;;;5042719;28;20225;-77
2023/01/20 10:59:12;;;;;;;25.40;18.00;;;;;;;;;;5052538;28;20241;-75
2023/01/20 11:01:39;;;;;;;24.70;17.27;;;;;;;;;;5056687;28;20595;-78
2023/01/20 11:04:05;;;;;;;25.33;17.03;;;;;;;;;;5039764;28;20301;-76
2023/01/20 11:06:32;;;;;;;23.80;17.00;;;;;;;;;;5045622;28;20190;-78
2023/01/20 11:09:01;;;;;;;24.17;17.80;;;;;;;;;;5062511;28;20204;-75
2023/01/20 11:11:28;;;;;;;21.27;16.77;;;;;;;;;;5043380;28;20189;-79
2023/01/20 11:13:56;;;;;;;21.93;16.93;;;;;;;;;;5045613;28;20618;-77
2023/01/20 11:16:24;;;;;;;21.30;15.93;;;;;;;;;;5036319;28;20268;-76
2023/01/20 11:19:04;;;;;;;20.07;16.40;;;;;;;;;;5040259;28;20330;-78
2023/01/20 11:21:32;;;;;;;24.67;17.17;;;;;;;;;;5035681;28;20297;-76
2023/01/20 11:23:58;;;;;;;21.87;16.87;;;;;;;;;;5035483;28;20211;-76
2023/01/20 11:26:35;;;;;;;19.10;15.57;;;;;;;;;;5038214;28;20193;-76
2023/01/20 11:29:22;;;;;;;20.87;16.10;;;;;;;;;;5033534;28;20275;-76
2023/01/20 11:31:50;;;;;;;20.80;15.13;;;;;;;;;;5041024;28;20521;-77
2023/01/20 11:34:24;;;;;;;21.90;14.83;;;;;;;;;;5045199;28;20351;-76
2023/01/20 11:37:10;;;;;;;21.20;15.70;;;;;;;;;;5040178;28;20679;-77
2023/01/20 11:39:57;;;;;;;20.13;14.93;;;;;;;;;;5047890;28;20193;-79
2023/01/20 11:42:28;;;;;;;20.57;15.10;;;;;;;;;;5022442;28;20186;-77
2023/01/20 11:44:56;;;;;;;20.30;13.93;;;;;;;;;;5046404;28;20697;-78
2023/01/20 11:47:22;;;;;;;19.53;14.43;;;;;;;;;;5040506;28;20663;-76
2023/01/20 11:50:03;;;;;;;20.80;14.13;;;;;;;;;;5048186;28;20660;-78
2023/01/20 11:52:34;;;;;;;18.83;13.97;;;;;;;;;;5042664;28;20898;-76
2023/01/20 11:55:29;;;;;;;17.70;13.00;;;;;;;;;;5035350;28;20265;-77
2023/01/20 11:57:57;;;;;;;17.53;13.17;;;;;;;;;;5031158;28;20201;-77
2023/01/20 12:00:23;;;;;;;20.00;12.80;;;;;;;;;;5057537;28;20170;-75
2023/01/20 12:03:06;;;;;;;16.87;12.70;;;;;;;;;;5031436;28;20249;-76
2023/01/20 12:05:52;;;;;;;14.27;11.27;;;;;;;;;;5040718;28;20269;-79
2023/01/20 12:08:30;;;;;;;16.23;11.63;;;;;;;;;;5041680;28;20186;-78
2023/01/20 12:10:59;;;;;;;14.53;11.93;;;;;;;;;;5035429;28;20206;-80
2023/01/20 12:13:27;;;;;;;17.93;12.33;;;;;;;;;;5028887;28;20255;-78
2023/01/20 12:15:55;;;;;;;16.27;12.00;;;;;;;;;;5034654;28;20252;-77
2023/01/20 12:18:30;;;;;;;14.93;11.17;;;;;;;;;;5043564;28;20190;-78
2023/01/20 12:21:08;;;;;;;14.50;11.17;;;;;;;;;;5032573;28;20209;-78
2023/01/20 12:23:47;;;;;;;16.10;11.43;;;;;;;;;;5048469;28;20212;-77
2023/01/20 12:26:14;;;;;;;14.53;10.83;;;;;;;;;;5042586;28;20186;-78
2023/01/20 12:28:44;;;;;;;14.03;11.00;;;;;;;;;;5042767;28;20201;-77
2023/01/20 12:31:11;;;;;;;14.60;11.13;;;;;;;;;;5025647;28;20198;-78
2023/01/20 12:33:44;;;;;;;14.83;11.70;;;;;;;;;;5046510;28;20221;-78
2023/01/20 12:36:23;;;;;;;13.77;10.20;;;;;;;;;;5040200;28;20795;-78
2023/01/20 12:39:02;;;;;;;13.37;10.20;;;;;;;;;;5032545;28;20280;-79
2023/01/20 12:41:28;;;;;;;14.43;11.00;;;;;;;;;;5037122;28;20178;-78
2023/01/20 12:44:00;;;;;;;14.60;10.40;;;;;;;;;;5044002;28;20275;-77
2023/01/20 12:46:31;;;;;;;13.53;9.47;;;;;;;;;;5043332;28;20174;-78
2023/01/20 12:48:57;;;;;;;14.33;10.57;;;;;;;;;;5046458;28;20169;-79
2023/01/20 12:51:50;;;;;;;13.33;10.47;;;;;;;;;;5036962;28;20213;-77
2023/01/20 12:54:35;;;;;;;11.83;9.27;;;;;;;;;;5004970;28;20302;-78
2023/01/20 12:57:17;;;;;;;12.03;8.80;;;;;;;;;;5045525;28;20269;-77
2023/01/20 12:59:48;;;;;;;13.57;8.43;;;;;;;;;;5043365;28;20609;-78
2023/01/20 13:02:42;;;;;;;12.93;9.13;;;;;;;;;;5035059;28;20213;-77
2023/01/20 13:05:27;;;;;;;13.33;9.30;;;;;;;;;;5047020;28;20243;-79
2023/01/20 13:08:02;;;;;;;13.17;9.63;;;;;;;;;;5061823;28;20261;-79
2023/01/20 13:10:38;;;;;;;13.00;9.10;;;;;;;;;;5048163;28;20617;-76
2023/01/20 13:13:20;;;;;;;12.30;8.47;;;;;;;;;;5023953;28;20359;-78
2023/01/20 13:15:52;;;;;;;11.03;8.47;;;;;;;;;;5041270;28;20593;-77
2023/01/20 13:18:22;;;;;;;11.30;8.10;;;;;;;;;;5007251;28;20187;-78
2023/01/20 13:20:48;;;;;;;11.10;8.30;;;;;;;;;;5041170;28;21037;-78
2023/01/20 13:23:16;;;;;;;11.60;7.57;;;;;;;;;;5022411;28;20264;-82
2023/01/20 13:25:44;;;;;;;13.93;9.80;;;;;;;;;;5032235;28;20177;-82
2023/01/20 13:28:14;;;;;;;12.13;8.40;;;;;;;;;;5049070;28;20189;-84
2023/01/20 13:30:42;;;;;;;14.13;8.93;;;;;;;;;;5051530;28;20251;-81
2023/01/20 13:33:16;;;;;;;10.10;8.10;;;;;;;;;;5035041;28;20221;-81
2023/01/20 13:35:44;;;;;;;9.97;8.50;;;;;;;;;;5049675;28;20189;-82
2023/01/20 13:38:21;;;;;;;11.43;8.20;;;;;;;;;;5029540;28;20637;-82
2023/01/20 13:40:48;;;;;;;11.47;8.27;;;;;;;;;;5041689;28;20181;-81
2023/01/20 13:43:26;;;;;;;14.33;8.47;;;;;;;;;;5032432;28;20846;-77
2023/01/20 13:46:05;;;;;;;13.50;8.20;;;;;;;;;;5044998;28;20238;-80
2023/01/20 13:48:32;;;;;;;11.27;7.93;;;;;;;;;;5033984;28;20197;-80
2023/01/20 13:51:24;;;;;;;10.57;8.20;;;;;;;;;;5024097;28;20178;-80
2023/01/20 13:53:50;;;;;;;12.27;8.27;;;;;;;;;;5029929;28;20274;-80
2023/01/20 13:56:27;;;;;;;13.33;8.77;;;;;;;;;;5045147;28;20660;-81
2023/01/20 13:58:54;;;;;;;13.53;9.07;;;;;;;;;;5023904;28;20265;-82
2023/01/20 14:01:21;;;;;;;13.30;8.83;;;;;;;;;;5021261;28;20198;-80
2023/01/20 14:04:03;;;;;;;13.40;9.10;;;;;;;;;;5039446;28;20291;-81
2023/01/20 14:06:32;;;;;;;15.60;9.43;;;;;;;;;;5043592;28;20228;-80
2023/01/20 14:09:00;;;;;;;13.10;9.40;;;;;;;;;;5042996;28;20235;-81
2023/01/20 14:11:27;;;;;;;12.13;9.07;;;;;;;;;;5016849;28;20178;-81
2023/01/20 14:13:56;;;;;;;14.80;8.97;;;;;;;;;;5007679;28;20668;-80
2023/01/20 14:16:25;;;;;;;13.93;9.37;;;;;;;;;;5019128;28;20259;-81
2023/01/20 14:18:53;;;;;;;13.87;9.67;;;;;;;;;;5036627;28;20622;-81
2023/01/20 14:21:24;;;;;;;15.30;10.90;;;;;;;;;;5019367;28;20198;-79
2023/01/20 14:23:50;;;;;;;15.13;10.70;;;;;;;;;;5020883;28;20716;-80
2023/01/20 14:26:22;;;;;;;15.17;10.67;;;;;;;;;;5009570;28;20205;-81
2023/01/20 14:28:52;;;;;;;15.80;10.30;;;;;;;;;;5040976;28;20230;-79
2023/01/20 14:31:20;;;;;;;14.07;9.90;;;;;;;;;;5002898;28;20584;-80
2023/01/20 14:33:53;;;;;;;14.77;10.40;;;;;;;;;;5020623;28;20221;-80
2023/01/20 14:36:20;;;;;;;13.20;9.10;;;;;;;;;;5037035;28;20197;-80
2023/01/20 14:38:55;;;;;;;15.43;10.20;;;;;;;;;;5018521;28;20194;-80
2023/01/20 14:41:26;;;;;;;14.33;9.83;;;;;;;;;;5028718;28;20209;-80